sensor_id;sensor_type;location;lat;lon;timestamp;pressure;altitude;pressure_sealevel;temperature;humidity
56270;BME280;42176;43.240;27.880;2023-08-12T00:01:16;100439.78;;;21.10;71.33
56270;BME280;42176;43.240;27.880;2023-08-12T00:03:17;100449.41;;;21.14;71.45
56270;BME280;42176;43.240;27.880;2023-08-12T00:05:17;100450.38;;;21.13;71.38
56270;BME280;42176;43.240;27.880;2023-08-12T00:07:18;100452.47;;;21.08;71.74
56270;BME280;42176;43.240;27.880;2023-08-12T00:09:18;100415.28;;;20.84;72.21
56270;BME280;42176;43.240;27.880;2023-08-12T00:11:18;100448.50;;;20.99;72.57
56270;BME280;42176;43.240;27.880;2023-08-12T00:13:19;100444.19;;;20.97;72.90
56270;BME280;42176;43.240;27.880;2023-08-12T00:15:21;100444.19;;;20.97;73.12
56270;BME280;42176;43.240;27.880;2023-08-12T00:17:21;100437.81;;;20.83;73.61
56270;BME280;42176;43.240;27.880;2023-08-12T00:19:21;100435.69;;;20.89;73.75
56270;BME280;42176;43.240;27.880;2023-08-12T00:21:22;100446.66;;;20.86;73.95
56270;BME280;42176;43.240;27.880;2023-08-12T00:23:22;100439.72;;;20.81;73.96
56270;BME280;42176;43.240;27.880;2023-08-12T00:25:23;100437.97;;;20.80;74.50
56270;BME280;42176;43.240;27.880;2023-08-12T00:27:23;100450.84;;;20.75;74.59
56270;BME280;42176;43.240;27.880;2023-08-12T00:29:24;100440.22;;;20.72;74.76
56270;BME280;42176;43.240;27.880;2023-08-12T00:31:24;100437.63;;;20.71;75.03
56270;BME280;42176;43.240;27.880;2023-08-12T00:33:24;100440.59;;;20.66;75.37
56270;BME280;42176;43.240;27.880;2023-08-12T00:35:25;100434.63;;;20.61;75.78
56270;BME280;42176;43.240;27.880;2023-08-12T00:37:25;100437.47;;;20.58;76.21
56270;BME280;42176;43.240;27.880;2023-08-12T00:39:26;100436.69;;;20.56;76.33
56270;BME280;42176;43.240;27.880;2023-08-12T00:41:26;100435.94;;;20.53;76.59
56270;BME280;42176;43.240;27.880;2023-08-12T00:43:27;100439.66;;;20.51;76.80
56270;BME280;42176;43.240;27.880;2023-08-12T00:45:27;100434.56;;;20.46;77.06
56270;BME280;42176;43.240;27.880;2023-08-12T00:47:29;100423.56;;;20.35;77.42
56270;BME280;42176;43.240;27.880;2023-08-12T00:49:31;100393.28;;;20.15;77.87
56270;BME280;42176;43.240;27.880;2023-08-12T00:51:33;100437.03;;;20.35;78.07
56270;BME280;42176;43.240;27.880;2023-08-12T00:53:34;100432.59;;;20.34;78.47
56270;BME280;42176;43.240;27.880;2023-08-12T00:55:35;100433.56;;;20.33;78.53
56270;BME280;42176;43.240;27.880;2023-08-12T00:57:35;100437.53;;;20.26;79.10
56270;BME280;42176;43.240;27.880;2023-08-12T00:59:36;100427.84;;;20.23;79.30
56270;BME280;42176;43.240;27.880;2023-08-12T01:01:40;100445.72;;;20.24;79.58
56270;BME280;42176;43.240;27.880;2023-08-12T01:03:43;100439.81;;;20.17;80.07
56270;BME280;42176;43.240;27.880;2023-08-12T01:05:44;100423.69;;;20.17;80.44
56270;BME280;42176;43.240;27.880;2023-08-12T01:07:45;100429.06;;;20.17;80.61
56270;BME280;42176;43.240;27.880;2023-08-12T01:09:46;100435.41;;;20.16;80.85
56270;BME280;42176;43.240;27.880;2023-08-12T01:12:34;100432.28;;;20.08;81.55
56270;BME280;42176;43.240;27.880;2023-08-12T01:14:25;100429.75;;;20.05;82.13
56270;BME280;42176;43.240;27.880;2023-08-12T01:16:30;100441.47;;;20.04;82.46
56270;BME280;42176;43.240;27.880;2023-08-12T01:18:33;100431.22;;;19.95;82.61
56270;BME280;42176;43.240;27.880;2023-08-12T01:20:34;100434.44;;;20.01;83.03
56270;BME280;42176;43.240;27.880;2023-08-12T01:22:37;100441.75;;;19.99;83.21
56270;BME280;42176;43.240;27.880;2023-08-12T01:24:40;100437.38;;;19.97;83.59
56270;BME280;42176;43.240;27.880;2023-08-12T01:26:40;100437.56;;;19.93;84.09
56270;BME280;42176;43.240;27.880;2023-08-12T01:28:41;100436.16;;;19.86;84.39
56270;BME280;42176;43.240;27.880;2023-08-12T01:30:52;100438.78;;;19.88;85.00
56270;BME280;42176;43.240;27.880;2023-08-12T01:33:14;100443.44;;;19.84;85.66
56270;BME280;42176;43.240;27.880;2023-08-12T01:35:30;100441.69;;;19.83;85.69
56270;BME280;42176;43.240;27.880;2023-08-12T01:37:33;100431.88;;;19.82;86.16
56270;BME280;42176;43.240;27.880;2023-08-12T01:39:36;100435.78;;;19.76;86.37
56270;BME280;42176;43.240;27.880;2023-08-12T01:41:39;100439.78;;;19.85;86.59
56270;BME280;42176;43.240;27.880;2023-08-12T01:43:41;100444.31;;;19.85;86.74
56270;BME280;42176;43.240;27.880;2023-08-12T01:45:41;100441.00;;;19.80;87.29
56270;BME280;42176;43.240;27.880;2023-08-12T01:47:44;100446.13;;;19.84;87.34
56270;BME280;42176;43.240;27.880;2023-08-12T01:49:44;100444.56;;;19.80;87.60
56270;BME280;42176;43.240;27.880;2023-08-12T01:51:45;100445.34;;;19.82;87.75
56270;BME280;42176;43.240;27.880;2023-08-12T01:53:45;100448.97;;;19.81;87.93
56270;BME280;42176;43.240;27.880;2023-08-12T01:55:47;100438.38;;;19.78;88.14
56270;BME280;42176;43.240;27.880;2023-08-12T01:57:48;100446.44;;;19.78;88.36
56270;BME280;42176;43.240;27.880;2023-08-12T01:59:48;100432.75;;;19.67;88.88
56270;BME280;42176;43.240;27.880;2023-08-12T02:01:48;100446.03;;;19.70;89.35
56270;BME280;42176;43.240;27.880;2023-08-12T02:03:49;100442.72;;;19.65;89.77
56270;BME280;42176;43.240;27.880;2023-08-12T02:05:49;100446.34;;;19.63;90.36
56270;BME280;42176;43.240;27.880;2023-08-12T02:07:50;100444.81;;;19.59;91.08
56270;BME280;42176;43.240;27.880;2023-08-12T02:09:50;100445.81;;;19.57;91.43
56270;BME280;42176;43.240;27.880;2023-08-12T02:11:50;100446.88;;;19.54;92.00
56270;BME280;42176;43.240;27.880;2023-08-12T02:13:51;100449.72;;;19.51;92.40
56270;BME280;42176;43.240;27.880;2023-08-12T02:15:51;100454.41;;;19.47;93.12
56270;BME280;42176;43.240;27.880;2023-08-12T02:17:52;100440.34;;;19.42;93.78
56270;BME280;42176;43.240;27.880;2023-08-12T02:19:52;100452.75;;;19.45;93.99
56270;BME280;42176;43.240;27.880;2023-08-12T02:21:52;100459.09;;;19.44;94.34
56270;BME280;42176;43.240;27.880;2023-08-12T02:23:53;100467.16;;;19.44;94.53
56270;BME280;42176;43.240;27.880;2023-08-12T02:25:53;100462.09;;;19.38;94.98
56270;BME280;42176;43.240;27.880;2023-08-12T02:27:54;100465.03;;;19.33;95.70
56270;BME280;42176;43.240;27.880;2023-08-12T02:29:54;100458.63;;;19.36;96.11
56270;BME280;42176;43.240;27.880;2023-08-12T02:31:55;100462.25;;;19.35;96.50
56270;BME280;42176;43.240;27.880;2023-08-12T02:33:55;100456.19;;;19.31;96.97
56270;BME280;42176;43.240;27.880;2023-08-12T02:35:56;100464.34;;;19.29;97.54
56270;BME280;42176;43.240;27.880;2023-08-12T02:37:56;100469.72;;;19.29;97.93
56270;BME280;42176;43.240;27.880;2023-08-12T02:39:57;100467.09;;;19.28;98.30
56270;BME280;42176;43.240;27.880;2023-08-12T02:41:57;100469.72;;;19.29;98.57
56270;BME280;42176;43.240;27.880;2023-08-12T02:43:58;100468.28;;;19.22;99.10
56270;BME280;42176;43.240;27.880;2023-08-12T02:45:58;100468.13;;;19.25;99.44
56270;BME280;42176;43.240;27.880;2023-08-12T02:47:58;100478.88;;;19.25;99.71
56270;BME280;42176;43.240;27.880;2023-08-12T02:49:59;100470.81;;;19.25;99.96
56270;BME280;42176;43.240;27.880;2023-08-12T02:51:59;100469.16;;;19.23;100.00
56270;BME280;42176;43.240;27.880;2023-08-12T02:54:00;100468.13;;;19.25;100.00
56270;BME280;42176;43.240;27.880;2023-08-12T02:56:00;100456.13;;;19.15;100.00
56270;BME280;42176;43.240;27.880;2023-08-12T02:58:01;100470.03;;;19.23;100.00
56270;BME280;42176;43.240;27.880;2023-08-12T03:00:02;100467.44;;;19.22;100.00
56270;BME280;42176;43.240;27.880;2023-08-12T03:02:04;100467.44;;;19.22;100.00
56270;BME280;42176;43.240;27.880;2023-08-12T03:04:04;100471.91;;;19.21;100.00
56270;BME280;42176;43.240;27.880;2023-08-12T03:06:05;100479.03;;;19.22;100.00
56270;BME280;42176;43.240;27.880;2023-08-12T03:08:05;100472.81;;;19.22;100.00
56270;BME280;42176;43.240;27.880;2023-08-12T03:10:06;100471.13;;;19.19;100.00
56270;BME280;42176;43.240;27.880;2023-08-12T03:12:07;100462.91;;;19.22;100.00
56270;BME280;42176;43.240;27.880;2023-08-12T03:14:07;100459.44;;;19.20;100.00
56270;BME280;42176;43.240;27.880;2023-08-12T03:16:12;100473.66;;;19.22;100.00
56270;BME280;42176;43.240;27.880;2023-08-12T03:18:16;100428.34;;;18.98;100.00
56270;BME280;42176;43.240;27.880;2023-08-12T03:20:16;100466.53;;;19.21;100.00
56270;BME280;42176;43.240;27.880;2023-08-12T03:22:16;100466.63;;;19.20;100.00
56270;BME280;42176;43.240;27.880;2023-08-12T03:24:17;100469.22;;;19.21;100.00
56270;BME280;42176;43.240;27.880;2023-08-12T03:26:17;100470.19;;;19.20;100.00
56270;BME280;42176;43.240;27.880;2023-08-12T03:28:18;100481.97;;;19.17;100.00
56270;BME280;42176;43.240;27.880;2023-08-12T03:30:18;100470.19;;;19.20;100.00
56270;BME280;42176;43.240;27.880;2023-08-12T03:32:18;100475.56;;;19.20;100.00
56270;BME280;42176;43.240;27.880;2023-08-12T03:34:19;100467.50;;;19.20;100.00
56270;BME280;42176;43.240;27.880;2023-08-12T03:36:19;100473.75;;;19.21;100.00
56270;BME280;42176;43.240;27.880;2023-08-12T03:38:20;100479.03;;;19.22;100.00
56270;BME280;42176;43.240;27.880;2023-08-12T03:40:20;100473.66;;;19.22;100.00
56270;BME280;42176;43.240;27.880;2023-08-12T03:42:21;100476.09;;;19.27;100.00
56270;BME280;42176;43.240;27.880;2023-08-12T03:44:21;100478.72;;;19.28;100.00
56270;BME280;42176;43.240;27.880;2023-08-12T03:46:22;100480.28;;;19.32;100.00
56270;BME280;42176;43.240;27.880;2023-08-12T03:48:22;100478.22;;;19.38;100.00
56270;BME280;42176;43.240;27.880;2023-08-12T03:50:23;100491.31;;;19.61;100.00
56270;BME280;42176;43.240;27.880;2023-08-12T03:52:24;100480.63;;;20.10;98.03
56270;BME280;42176;43.240;27.880;2023-08-12T03:54:24;100480.94;;;20.51;94.57
56270;BME280;42176;43.240;27.880;2023-08-12T03:56:25;100479.00;;;20.86;91.55
56270;BME280;42176;43.240;27.880;2023-08-12T03:58:25;100482.53;;;21.17;88.97
56270;BME280;42176;43.240;27.880;2023-08-12T04:00:26;100495.56;;;21.53;86.10
56270;BME280;42176;43.240;27.880;2023-08-12T04:02:26;100487.19;;;21.87;83.35
56270;BME280;42176;43.240;27.880;2023-08-12T04:04:27;100486.28;;;22.15;80.79
56270;BME280;42176;43.240;27.880;2023-08-12T04:06:28;100487.84;;;22.47;78.39
56270;BME280;42176;43.240;27.880;2023-08-12T04:08:28;100483.72;;;22.69;76.65
56270;BME280;42176;43.240;27.880;2023-08-12T04:10:30;100484.88;;;23.05;74.22
56270;BME280;42176;43.240;27.880;2023-08-12T04:12:30;100481.47;;;23.29;72.39
56270;BME280;42176;43.240;27.880;2023-08-12T04:14:30;100487.53;;;23.45;71.42
56270;BME280;42176;43.240;27.880;2023-08-12T04:16:31;100491.72;;;23.75;69.40
56270;BME280;42176;43.240;27.880;2023-08-12T04:18:31;100489.88;;;24.01;67.49
56270;BME280;42176;43.240;27.880;2023-08-12T04:20:32;100486.31;;;24.25;66.07
56270;BME280;42176;43.240;27.880;2023-08-12T04:22:32;100492.97;;;24.45;64.99
56270;BME280;42176;43.240;27.880;2023-08-12T04:24:35;100487.47;;;24.58;64.16
56270;BME280;42176;43.240;27.880;2023-08-12T04:26:35;100482.66;;;24.75;63.03
56270;BME280;42176;43.240;27.880;2023-08-12T04:28:35;100489.03;;;24.98;61.66
56270;BME280;42176;43.240;27.880;2023-08-12T04:30:41;100507.00;;;25.35;59.96
56270;BME280;42176;43.240;27.880;2023-08-12T04:32:41;100494.84;;;25.52;58.75
56270;BME280;42176;43.240;27.880;2023-08-12T04:34:41;100499.16;;;25.77;58.07
56270;BME280;42176;43.240;27.880;2023-08-12T04:36:42;100496.72;;;25.74;57.76
56270;BME280;42176;43.240;27.880;2023-08-12T04:38:42;100494.81;;;25.86;56.42
56270;BME280;42176;43.240;27.880;2023-08-12T04:40:43;100502.00;;;26.21;55.33
56270;BME280;42176;43.240;27.880;2023-08-12T04:42:43;100501.47;;;26.39;54.41
56270;BME280;42176;43.240;27.880;2023-08-12T04:44:43;100509.75;;;26.70;53.66
56270;BME280;42176;43.240;27.880;2023-08-12T04:46:44;100512.44;;;26.93;52.67
56270;BME280;42176;43.240;27.880;2023-08-12T04:48:44;100506.19;;;27.23;51.42
56270;BME280;42176;43.240;27.880;2023-08-12T04:50:45;100507.25;;;27.53;50.34
56270;BME280;42176;43.240;27.880;2023-08-12T04:52:46;100495.63;;;27.82;49.16
56270;BME280;42176;43.240;27.880;2023-08-12T04:54:46;100502.38;;;28.19;47.82
56270;BME280;42176;43.240;27.880;2023-08-12T04:56:47;100511.63;;;28.67;46.38
56270;BME280;42176;43.240;27.880;2023-08-12T04:58:47;100505.63;;;28.83;45.82
56270;BME280;42176;43.240;27.880;2023-08-12T05:00:48;100504.78;;;29.02;45.04
56270;BME280;42176;43.240;27.880;2023-08-12T05:02:48;100516.53;;;29.42;44.19
56270;BME280;42176;43.240;27.880;2023-08-12T05:04:51;100520.97;;;29.13;44.65
56270;BME280;42176;43.240;27.880;2023-08-12T05:06:52;100520.78;;;29.54;43.10
56270;BME280;42176;43.240;27.880;2023-08-12T05:08:52;100506.72;;;29.49;43.58
56270;BME280;42176;43.240;27.880;2023-08-12T05:10:52;100511.88;;;29.52;42.93
56270;BME280;42176;43.240;27.880;2023-08-12T05:12:53;100513.97;;;29.68;42.33
56270;BME280;42176;43.240;27.880;2023-08-12T05:14:54;100507.13;;;30.02;41.77
56270;BME280;42176;43.240;27.880;2023-08-12T05:16:54;100516.88;;;29.95;41.84
56270;BME280;42176;43.240;27.880;2023-08-12T05:18:55;100505.16;;;29.84;41.38
56270;BME280;42176;43.240;27.880;2023-08-12T05:20:55;100504.78;;;29.59;41.94
56270;BME280;42176;43.240;27.880;2023-08-12T05:22:55;100516.88;;;29.95;41.05
56270;BME280;42176;43.240;27.880;2023-08-12T05:24:56;100519.81;;;30.39;40.24
56270;BME280;42176;43.240;27.880;2023-08-12T05:26:56;100518.22;;;30.46;40.24
56270;BME280;42176;43.240;27.880;2023-08-12T05:28:57;100525.66;;;31.08;39.28
56270;BME280;42176;43.240;27.880;2023-08-12T05:30:57;100507.53;;;30.71;39.08
56270;BME280;42176;43.240;27.880;2023-08-12T05:32:57;100512.41;;;31.13;38.65
56270;BME280;42176;43.240;27.880;2023-08-12T05:34:58;100523.63;;;31.10;38.52
56270;BME280;42176;43.240;27.880;2023-08-12T05:36:58;100529.16;;;31.37;38.05
56270;BME280;42176;43.240;27.880;2023-08-12T05:38:59;100509.94;;;31.55;37.28
56270;BME280;42176;43.240;27.880;2023-08-12T05:40:59;100514.63;;;31.97;36.26
56270;BME280;42176;43.240;27.880;2023-08-12T05:42:59;100516.16;;;32.34;36.07
56270;BME280;42176;43.240;27.880;2023-08-12T05:45:00;100531.28;;;32.47;35.37
56270;BME280;42176;43.240;27.880;2023-08-12T05:47:00;100516.13;;;32.26;35.74
56270;BME280;42176;43.240;27.880;2023-08-12T05:49:00;100524.31;;;32.77;34.95
56270;BME280;42176;43.240;27.880;2023-08-12T05:51:01;100516.94;;;33.11;34.45
56270;BME280;42176;43.240;27.880;2023-08-12T05:53:01;100518.09;;;33.58;33.12
56270;BME280;42176;43.240;27.880;2023-08-12T05:55:02;100530.03;;;34.30;32.40
56270;BME280;42176;43.240;27.880;2023-08-12T05:57:03;100526.56;;;34.36;32.11
56270;BME280;42176;43.240;27.880;2023-08-12T05:59:03;100534.81;;;34.68;31.71
56270;BME280;42176;43.240;27.880;2023-08-12T06:01:04;100543.06;;;34.99;30.60
56270;BME280;42176;43.240;27.880;2023-08-12T06:03:04;100523.28;;;35.34;30.16
56270;BME280;42176;43.240;27.880;2023-08-12T06:05:05;100530.78;;;35.25;30.15
56270;BME280;42176;43.240;27.880;2023-08-12T06:07:05;100540.44;;;35.44;30.27
56270;BME280;42176;43.240;27.880;2023-08-12T06:09:06;100523.53;;;36.22;28.84
56270;BME280;42176;43.240;27.880;2023-08-12T06:11:06;100525.31;;;36.67;28.58
56270;BME280;42176;43.240;27.880;2023-08-12T06:13:07;100529.38;;;36.49;28.09
56270;BME280;42176;43.240;27.880;2023-08-12T06:15:08;100521.94;;;35.98;29.03
56270;BME280;42176;43.240;27.880;2023-08-12T06:17:08;100517.19;;;36.07;28.81
56270;BME280;42176;43.240;27.880;2023-08-12T06:19:08;100521.53;;;36.16;28.74
56270;BME280;42176;43.240;27.880;2023-08-12T06:21:09;100530.44;;;36.92;27.59
56270;BME280;42176;43.240;27.880;2023-08-12T06:23:09;100523.13;;;37.56;27.20
56270;BME280;42176;43.240;27.880;2023-08-12T06:25:10;100516.09;;;37.53;26.61
56270;BME280;42176;43.240;27.880;2023-08-12T06:27:10;100521.47;;;37.97;26.41
56270;BME280;42176;43.240;27.880;2023-08-12T06:29:11;100522.53;;;38.51;25.77
56270;BME280;42176;43.240;27.880;2023-08-12T06:31:11;100520.19;;;38.54;25.49
56270;BME280;42176;43.240;27.880;2023-08-12T06:33:11;100523.22;;;38.80;25.12
56270;BME280;42176;43.240;27.880;2023-08-12T06:35:12;100515.63;;;38.33;25.57
56270;BME280;42176;43.240;27.880;2023-08-12T06:37:12;100518.38;;;38.95;24.77
56270;BME280;42176;43.240;27.880;2023-08-12T06:39:13;100521.78;;;38.91;25.06
56270;BME280;42176;43.240;27.880;2023-08-12T06:41:13;100516.28;;;39.31;24.18
56270;BME280;42176;43.240;27.880;2023-08-12T06:43:14;100529.41;;;39.83;23.84
56270;BME280;42176;43.240;27.880;2023-08-12T06:45:14;100523.09;;;40.14;23.44
56270;BME280;42176;43.240;27.880;2023-08-12T06:47:15;100514.78;;;40.14;22.63
56270;BME280;42176;43.240;27.880;2023-08-12T06:49:16;100520.53;;;40.19;23.08
56270;BME280;42176;43.240;27.880;2023-08-12T06:51:16;100518.91;;;40.44;22.88
56270;BME280;42176;43.240;27.880;2023-08-12T06:53:16;100524.44;;;40.83;22.05
56270;BME280;42176;43.240;27.880;2023-08-12T06:55:17;100527.47;;;41.06;21.69
56270;BME280;42176;43.240;27.880;2023-08-12T06:57:17;100516.44;;;41.44;21.78
56270;BME280;42176;43.240;27.880;2023-08-12T06:59:18;100520.66;;;42.09;21.25
56270;BME280;42176;43.240;27.880;2023-08-12T07:01:18;100523.00;;;42.12;21.08
56270;BME280;42176;43.240;27.880;2023-08-12T07:03:19;100525.13;;;42.47;20.56
56270;BME280;42176;43.240;27.880;2023-08-12T07:05:19;100513.56;;;42.13;21.00
56270;BME280;42176;43.240;27.880;2023-08-12T07:07:20;100515.38;;;42.38;20.60
56270;BME280;42176;43.240;27.880;2023-08-12T07:09:20;100516.16;;;42.87;19.62
56270;BME280;42176;43.240;27.880;2023-08-12T07:11:21;100514.09;;;42.95;19.59
56270;BME280;42176;43.240;27.880;2023-08-12T07:13:21;100522.97;;;43.03;19.58
56270;BME280;42176;43.240;27.880;2023-08-12T07:15:22;100515.72;;;43.26;19.22
56270;BME280;42176;43.240;27.880;2023-08-12T07:17:22;100517.13;;;42.81;19.67
56270;BME280;42176;43.240;27.880;2023-08-12T07:19:22;100517.88;;;43.00;19.33
56270;BME280;42176;43.240;27.880;2023-08-12T07:21:23;100508.66;;;42.88;19.65
56270;BME280;42176;43.240;27.880;2023-08-12T07:23:24;100509.50;;;42.27;20.03
56270;BME280;42176;43.240;27.880;2023-08-12T07:25:24;100513.28;;;42.64;19.93
56270;BME280;42176;43.240;27.880;2023-08-12T07:27:25;100515.66;;;42.79;19.31
56270;BME280;42176;43.240;27.880;2023-08-12T07:29:25;100510.50;;;43.30;18.99
56270;BME280;42176;43.240;27.880;2023-08-12T07:31:25;100508.91;;;43.10;18.93
56270;BME280;42176;43.240;27.880;2023-08-12T07:33:26;100505.25;;;42.86;19.09
56270;BME280;42176;43.240;27.880;2023-08-12T07:35:26;100515.13;;;43.36;18.52
56270;BME280;42176;43.240;27.880;2023-08-12T07:37:28;100508.53;;;41.22;19.66
56270;BME280;42176;43.240;27.880;2023-08-12T07:39:28;100509.31;;;41.29;19.97
56270;BME280;42176;43.240;27.880;2023-08-12T07:41:29;100509.22;;;41.80;19.77
56270;BME280;42176;43.240;27.880;2023-08-12T07:43:29;100494.66;;;41.40;20.33
56270;BME280;42176;43.240;27.880;2023-08-12T07:45:30;100511.09;;;41.67;19.81
56270;BME280;42176;43.240;27.880;2023-08-12T07:47:30;100506.59;;;41.66;19.35
56270;BME280;42176;43.240;27.880;2023-08-12T07:49:30;100500.59;;;41.25;20.30
56270;BME280;42176;43.240;27.880;2023-08-12T07:51:31;100495.94;;;41.82;19.50
56270;BME280;42176;43.240;27.880;2023-08-12T07:53:31;100496.19;;;42.29;19.13
56270;BME280;42176;43.240;27.880;2023-08-12T07:55:32;100498.72;;;41.63;19.55
56270;BME280;42176;43.240;27.880;2023-08-12T07:57:32;100504.16;;;41.33;19.97
56270;BME280;42176;43.240;27.880;2023-08-12T07:59:33;100500.72;;;41.75;19.61
56270;BME280;42176;43.240;27.880;2023-08-12T08:01:33;100482.88;;;40.62;20.14
56270;BME280;42176;43.240;27.880;2023-08-12T08:03:33;100494.72;;;40.12;20.94
56270;BME280;42176;43.240;27.880;2023-08-12T08:05:34;100495.31;;;39.62;20.95
56270;BME280;42176;43.240;27.880;2023-08-12T08:07:34;100495.75;;;39.25;21.01
56270;BME280;42176;43.240;27.880;2023-08-12T08:09:35;100489.72;;;39.69;21.30
56270;BME280;42176;43.240;27.880;2023-08-12T08:11:35;100487.88;;;39.02;22.06
56270;BME280;42176;43.240;27.880;2023-08-12T08:13:36;100501.28;;;39.25;21.37
56270;BME280;42176;43.240;27.880;2023-08-12T08:15:36;100503.88;;;39.27;20.73
56270;BME280;42176;43.240;27.880;2023-08-12T08:17:37;100497.28;;;40.07;19.96
56270;BME280;42176;43.240;27.880;2023-08-12T08:19:38;100480.44;;;40.47;19.41
56270;BME280;42176;43.240;27.880;2023-08-12T08:21:38;100478.44;;;40.23;20.59
56270;BME280;42176;43.240;27.880;2023-08-12T08:23:40;100487.47;;;40.04;19.37
56270;BME280;42176;43.240;27.880;2023-08-12T08:25:41;100493.75;;;39.86;19.75
56270;BME280;42176;43.240;27.880;2023-08-12T08:27:42;100485.78;;;40.03;19.13
56270;BME280;42176;43.240;27.880;2023-08-12T08:29:42;100484.25;;;39.42;19.59
56270;BME280;42176;43.240;27.880;2023-08-12T08:31:43;100451.44;;;38.72;20.72
56270;BME280;42176;43.240;27.880;2023-08-12T08:33:43;100488.94;;;39.28;20.13
56270;BME280;42176;43.240;27.880;2023-08-12T08:35:44;100489.75;;;39.55;19.98
56270;BME280;42176;43.240;27.880;2023-08-12T08:37:44;100503.31;;;39.91;18.98
56270;BME280;42176;43.240;27.880;2023-08-12T08:39:44;100488.88;;;39.75;19.59
56270;BME280;42176;43.240;27.880;2023-08-12T08:41:47;100503.94;;;37.83;21.59
56270;BME280;42176;43.240;27.880;2023-08-12T08:43:49;100487.84;;;37.58;21.93
56270;BME280;42176;43.240;27.880;2023-08-12T08:45:53;100480.28;;;38.29;21.44
56270;BME280;42176;43.240;27.880;2023-08-12T08:47:53;100488.25;;;38.52;21.25
56270;BME280;42176;43.240;27.880;2023-08-12T08:49:57;100490.50;;;38.21;24.37
56270;BME280;42176;43.240;27.880;2023-08-12T08:51:59;100476.00;;;38.13;24.87
56270;BME280;42176;43.240;27.880;2023-08-12T08:54:02;100483.41;;;38.05;24.97
56270;BME280;42176;43.240;27.880;2023-08-12T08:56:09;100482.94;;;38.64;24.56
56270;BME280;42176;43.240;27.880;2023-08-12T08:58:12;100475.47;;;36.75;25.71
56270;BME280;42176;43.240;27.880;2023-08-12T09:00:13;100478.97;;;37.34;25.70
56270;BME280;42176;43.240;27.880;2023-08-12T09:02:17;100478.25;;;36.97;26.36
56270;BME280;42176;43.240;27.880;2023-08-12T09:04:21;100454.09;;;36.84;26.27
56270;BME280;42176;43.240;27.880;2023-08-12T09:06:23;100473.22;;;35.30;28.13
56270;BME280;42176;43.240;27.880;2023-08-12T09:08:24;100458.03;;;35.34;28.71
56270;BME280;42176;43.240;27.880;2023-08-12T09:10:26;100470.34;;;34.07;30.22
56270;BME280;42176;43.240;27.880;2023-08-12T09:12:27;100468.31;;;31.86;33.91
56270;BME280;42176;43.240;27.880;2023-08-12T09:14:28;100469.22;;;31.60;34.99
56270;BME280;42176;43.240;27.880;2023-08-12T09:16:28;100473.75;;;30.44;37.05
56270;BME280;42176;43.240;27.880;2023-08-12T09:18:29;100480.81;;;30.65;37.03
56270;BME280;42176;43.240;27.880;2023-08-12T09:20:30;100468.09;;;29.34;40.09
56270;BME280;42176;43.240;27.880;2023-08-12T09:22:30;100471.16;;;28.82;42.07
56270;BME280;42176;43.240;27.880;2023-08-12T09:24:31;100469.13;;;28.45;43.97
56270;BME280;42176;43.240;27.880;2023-08-12T09:26:31;100472.56;;;28.27;45.56
56270;BME280;42176;43.240;27.880;2023-08-12T09:28:32;100461.00;;;27.63;48.74
56270;BME280;42176;43.240;27.880;2023-08-12T09:30:32;100466.63;;;27.19;51.44
56270;BME280;42176;43.240;27.880;2023-08-12T09:32:32;100456.50;;;27.00;53.62
56270;BME280;42176;43.240;27.880;2023-08-12T09:34:34;100450.13;;;26.89;55.49
56270;BME280;42176;43.240;27.880;2023-08-12T09:36:35;100460.41;;;26.86;55.20
56270;BME280;42176;43.240;27.880;2023-08-12T09:38:35;100453.59;;;26.92;55.75
56270;BME280;42176;43.240;27.880;2023-08-12T09:40:36;100460.19;;;26.99;54.25
56270;BME280;42176;43.240;27.880;2023-08-12T09:42:42;100453.22;;;27.27;53.98
56270;BME280;42176;43.240;27.880;2023-08-12T09:44:44;100450.50;;;27.27;52.41
56270;BME280;42176;43.240;27.880;2023-08-12T09:46:45;100457.31;;;27.43;51.39
56270;BME280;42176;43.240;27.880;2023-08-12T09:48:45;100458.34;;;27.20;50.92
56270;BME280;42176;43.240;27.880;2023-08-12T09:50:45;100454.56;;;27.12;50.42
56270;BME280;42176;43.240;27.880;2023-08-12T09:52:46;100443.63;;;27.02;50.75
56270;BME280;42176;43.240;27.880;2023-08-12T09:54:49;100457.13;;;27.13;51.17
56270;BME280;42176;43.240;27.880;2023-08-12T09:56:57;100440.50;;;26.85;51.83
56270;BME280;42176;43.240;27.880;2023-08-12T09:58:59;100446.31;;;27.23;50.97
56270;BME280;42176;43.240;27.880;2023-08-12T10:01:01;100442.09;;;27.09;49.98
56270;BME280;42176;43.240;27.880;2023-08-12T10:03:03;100451.22;;;27.29;50.93
56270;BME280;42176;43.240;27.880;2023-08-12T10:05:04;100440.38;;;27.08;52.37
56270;BME280;42176;43.240;27.880;2023-08-12T10:07:06;100446.47;;;27.00;53.86
56270;BME280;42176;43.240;27.880;2023-08-12T10:09:07;100445.25;;;26.72;56.07
56270;BME280;42176;43.240;27.880;2023-08-12T10:11:11;100444.72;;;26.78;57.00
56270;BME280;42176;43.240;27.880;2023-08-12T10:13:12;100445.00;;;26.64;59.05
56270;BME280;42176;43.240;27.880;2023-08-12T10:15:13;100424.31;;;26.51;60.14
56270;BME280;42176;43.240;27.880;2023-08-12T10:17:14;100444.09;;;26.53;63.70
56270;BME280;42176;43.240;27.880;2023-08-12T10:19:16;100432.84;;;26.79;64.81
56270;BME280;42176;43.240;27.880;2023-08-12T10:21:16;100432.75;;;27.02;66.18
56270;BME280;42176;43.240;27.880;2023-08-12T10:23:17;100427.03;;;27.05;65.59